createdAt,value
2022-09-28T00:01:12.387Z,18.60
2022-09-28T00:03:20.234Z,18.80
2022-09-28T00:05:27.080Z,18.70
2022-09-28T00:07:31.402Z,18.70
2022-09-28T00:09:37.392Z,19.00
2022-09-28T00:11:41.985Z,19.30
2022-09-28T00:13:51.092Z,18.90
2022-09-28T00:16:04.881Z,19.00
2022-09-28T00:18:09.564Z,18.90
2022-09-28T00:20:13.894Z,18.80
2022-09-28T00:22:18.747Z,18.00
2022-09-28T00:24:30.652Z,17.70
2022-09-28T00:26:36.534Z,17.90
2022-09-28T00:28:40.932Z,17.90
2022-09-28T00:30:45.220Z,17.90
2022-09-28T00:32:49.752Z,17.70
2022-09-28T00:34:55.180Z,17.60
2022-09-28T00:37:00.100Z,17.80
2022-09-28T00:39:07.021Z,17.90
2022-09-28T00:41:12.666Z,18.10
2022-09-28T00:43:22.428Z,18.30
2022-09-28T00:45:28.228Z,18.20
2022-09-28T00:47:42.438Z,18.10
2022-09-28T00:49:52.866Z,17.70
2022-09-28T00:51:57.620Z,17.50
2022-09-28T00:54:05.518Z,17.80
2022-09-28T00:56:14.018Z,18.10
2022-09-28T00:58:22.711Z,18.20
2022-09-28T01:00:27.268Z,18.40
2022-09-28T01:02:32.692Z,18.50
2022-09-28T01:04:39.741Z,18.50
2022-09-28T01:06:46.863Z,18.50
2022-09-28T01:08:56.084Z,18.60
2022-09-28T01:11:01.487Z,18.80
2022-09-28T01:13:06.059Z,18.80
2022-09-28T01:15:12.524Z,18.70
2022-09-28T01:17:19.107Z,18.50
2022-09-28T01:20:02.911Z,18.50
2022-09-28T01:22:24.962Z,18.90
2022-09-28T01:24:43.027Z,18.90
2022-09-28T01:27:07.048Z,18.80
2022-09-28T01:29:18.841Z,18.90
2022-09-28T01:31:28.261Z,19.00
2022-09-28T01:33:41.473Z,19.00
2022-09-28T01:35:52.648Z,18.90
2022-09-28T01:38:06.184Z,19.00
2022-09-28T01:40:13.570Z,19.00
2022-09-28T01:42:25.249Z,18.90
2022-09-28T01:44:33.230Z,18.90
2022-09-28T01:46:42.388Z,19.20
2022-09-28T01:48:51.034Z,19.20
2022-09-28T01:50:58.669Z,19.00
2022-09-28T01:53:08.824Z,19.10
2022-09-28T01:55:15.571Z,18.60
2022-09-28T01:57:26.430Z,18.80
2022-09-28T01:59:34.580Z,18.70
2022-09-28T02:01:42.494Z,18.40
2022-09-28T02:03:52.854Z,18.60
2022-09-28T02:06:01.264Z,18.50
2022-09-28T02:08:09.705Z,18.40
2022-09-28T02:10:19.927Z,18.40
2022-09-28T02:12:33.312Z,18.40
2022-09-28T02:14:40.694Z,18.20
2022-09-28T02:16:46.665Z,18.00
2022-09-28T02:18:52.402Z,18.00
2022-09-28T02:21:02.471Z,17.90
2022-09-28T02:23:08.405Z,17.60
2022-09-28T02:25:18.390Z,17.30
2022-09-28T02:27:27.315Z,17.10
2022-09-28T02:29:33.346Z,17.40
2022-09-28T02:31:38.650Z,17.50
2022-09-28T02:33:45.633Z,17.40
2022-09-28T02:35:50.332Z,17.70
2022-09-28T02:37:56.766Z,18.10
2022-09-28T02:40:01.711Z,18.30
2022-09-28T02:42:18.615Z,18.10
2022-09-28T02:44:51.340Z,18.10
2022-09-28T02:47:01.334Z,17.70
2022-09-28T02:49:22.476Z,17.30
2022-09-28T02:51:37.627Z,17.30
2022-09-28T02:54:04.995Z,17.00
2022-09-28T02:56:30.814Z,16.60
2022-09-28T02:58:43.691Z,16.50
2022-09-28T03:00:56.261Z,16.30
2022-09-28T03:03:10.174Z,16.80
2022-09-28T03:05:20.808Z,17.40
2022-09-28T03:07:30.031Z,16.50
2022-09-28T03:09:38.717Z,16.30
2022-09-28T03:11:48.457Z,16.60
2022-09-28T03:13:54.341Z,17.20
2022-09-28T03:16:13.396Z,17.70
2022-09-28T03:18:19.335Z,17.80
2022-09-28T03:20:23.829Z,18.10
2022-09-28T03:22:28.230Z,18.50
2022-09-28T03:24:32.649Z,18.70
2022-09-28T03:26:37.196Z,18.50
2022-09-28T03:28:42.397Z,18.70
2022-09-28T03:30:52.380Z,18.90
2022-09-28T03:33:03.301Z,19.10
2022-09-28T03:35:11.495Z,19.20
2022-09-28T03:37:15.812Z,19.10
2022-09-28T03:39:20.290Z,19.10
2022-09-28T03:41:27.871Z,18.70
2022-09-28T03:43:32.582Z,18.50
2022-09-28T03:45:39.561Z,18.30
2022-09-28T03:47:47.623Z,18.20
2022-09-28T03:49:53.579Z,18.00
2022-09-28T03:51:57.954Z,17.90
2022-09-28T03:54:02.882Z,17.70
2022-09-28T03:56:10.495Z,17.80
2022-09-28T03:58:15.138Z,17.70
2022-09-28T04:00:20.121Z,17.70
2022-09-28T04:02:26.076Z,17.90
2022-09-28T04:04:30.905Z,18.10
2022-09-28T04:06:37.162Z,18.30
2022-09-28T04:08:43.210Z,18.50
2022-09-28T04:10:48.502Z,18.70
2022-09-28T04:12:56.234Z,18.60
2022-09-28T04:15:00.838Z,18.40
2022-09-28T04:17:06.469Z,18.20
2022-09-28T04:19:11.185Z,18.10
2022-09-28T04:21:22.717Z,18.10
2022-09-28T04:23:34.776Z,17.60
2022-09-28T04:25:39.795Z,18.00
2022-09-28T04:28:03.824Z,18.40
2022-09-28T04:30:09.536Z,19.10
2022-09-28T04:32:14.757Z,19.50
2022-09-28T04:34:21.595Z,19.80
2022-09-28T04:36:26.787Z,19.80
2022-09-28T04:38:51.857Z,19.80
2022-09-28T04:40:57.778Z,19.80
2022-09-28T04:43:02.499Z,19.70
2022-09-28T04:45:08.242Z,19.70
2022-09-28T04:47:16.424Z,19.40
2022-09-28T04:49:24.556Z,19.30
2022-09-28T04:51:32.758Z,18.60
2022-09-28T04:53:37.500Z,18.00
2022-09-28T04:55:43.361Z,17.50
2022-09-28T04:57:49.607Z,17.20
2022-09-28T04:59:54.061Z,16.70
2022-09-28T05:01:58.373Z,16.50
2022-09-28T05:04:03.311Z,16.00
2022-09-28T05:06:33.800Z,15.80
2022-09-28T05:08:47.029Z,15.40
2022-09-28T05:11:00.138Z,15.10
2022-09-28T05:13:10.839Z,14.90
2022-09-28T05:15:15.622Z,14.90
2022-09-28T05:17:20.198Z,14.90
2022-09-28T05:19:43.559Z,15.00
2022-09-28T05:21:49.293Z,15.00
2022-09-28T05:23:56.372Z,15.00
2022-09-28T05:26:03.250Z,15.00
2022-09-28T05:28:10.122Z,14.90
2022-09-28T05:30:43.081Z,14.80
2022-09-28T05:33:03.410Z,14.80
2022-09-28T05:35:19.400Z,14.60
2022-09-28T05:37:25.201Z,14.60
2022-09-28T05:39:29.594Z,14.90
2022-09-28T05:41:33.999Z,15.10
2022-09-28T05:43:39.926Z,15.40
2022-09-28T05:45:44.353Z,15.70
2022-09-28T05:47:49.167Z,16.10
2022-09-28T05:49:56.976Z,16.50
2022-09-28T05:52:01.330Z,16.60
2022-09-28T05:54:06.475Z,16.80
2022-09-28T05:56:13.780Z,17.00
2022-09-28T05:58:21.875Z,17.30
2022-09-28T06:00:28.352Z,17.70
2022-09-28T06:02:33.819Z,17.90
2022-09-28T06:04:38.441Z,18.20
2022-09-28T06:06:43.354Z,18.30
2022-09-28T06:08:48.606Z,18.40
2022-09-28T06:11:13.763Z,18.50
2022-09-28T06:13:18.658Z,18.60
2022-09-28T06:15:23.058Z,18.60
2022-09-28T06:17:29.220Z,18.70
2022-09-28T06:19:53.652Z,19.00
2022-09-28T06:22:12.913Z,19.50
2022-09-28T06:24:30.430Z,19.60
2022-09-28T06:26:34.908Z,19.90
2022-09-28T06:28:39.345Z,19.70
2022-09-28T06:30:45.272Z,19.60
2022-09-28T06:32:56.653Z,19.70
2022-09-28T06:35:00.966Z,19.70
2022-09-28T06:37:05.752Z,20.10
2022-09-28T06:39:10.792Z,20.30
2022-09-28T06:41:16.068Z,20.20
2022-09-28T06:43:21.975Z,20.40
2022-09-28T06:45:45.135Z,20.60
2022-09-28T06:48:03.989Z,20.70
2022-09-28T06:50:15.157Z,20.60
2022-09-28T06:52:29.414Z,20.40
2022-09-28T06:55:00.051Z,20.60
2022-09-28T06:57:16.665Z,20.60
2022-09-28T06:59:21.471Z,20.40
2022-09-28T07:01:26.202Z,20.40
2022-09-28T07:03:58.047Z,20.50
2022-09-28T07:06:24.269Z,20.60
2022-09-28T07:09:07.435Z,21.10
2022-09-28T07:11:41.672Z,21.40
2022-09-28T07:13:56.551Z,21.40
2022-09-28T07:16:04.595Z,21.30
2022-09-28T07:18:10.048Z,21.40
2022-09-28T07:20:19.787Z,21.40
2022-09-28T07:22:39.297Z,21.50
2022-09-28T07:24:45.969Z,21.60
2022-09-28T07:27:09.789Z,21.50
2022-09-28T07:29:36.670Z,21.70
2022-09-28T07:31:59.875Z,21.80
2022-09-28T07:34:23.266Z,22.10
2022-09-28T07:36:58.950Z,22.20
2022-09-28T07:39:04.552Z,22.20
2022-09-28T07:41:12.498Z,22.30
2022-09-28T07:43:23.813Z,22.50
2022-09-28T07:45:31.756Z,22.80
2022-09-28T07:47:37.221Z,22.70
2022-09-28T07:50:02.224Z,22.80
2022-09-28T07:52:20.972Z,22.70
2022-09-28T07:54:44.848Z,22.70
2022-09-28T07:57:09.382Z,23.00
2022-09-28T07:59:40.299Z,22.80
2022-09-28T08:02:10.281Z,22.90
2022-09-28T08:04:14.881Z,23.10
2022-09-28T08:06:21.627Z,23.20
2022-09-28T08:08:29.127Z,23.00
2022-09-28T08:10:34.248Z,23.00
2022-09-28T08:13:02.890Z,23.00
2022-09-28T08:15:16.607Z,23.20
2022-09-28T08:17:20.938Z,23.40
2022-09-28T08:19:49.000Z,23.50
2022-09-28T08:21:52.636Z,23.50
2022-09-28T08:23:58.862Z,23.70
2022-09-28T08:26:03.752Z,23.80
2022-09-28T08:28:09.852Z,23.90
2022-09-28T08:30:21.653Z,24.00
2022-09-28T08:32:37.126Z,24.10
2022-09-28T08:35:10.757Z,23.80
2022-09-28T08:37:24.150Z,24.00
2022-09-28T08:39:49.144Z,24.20
2022-09-28T08:42:32.469Z,24.40
2022-09-28T08:44:58.060Z,24.40
2022-09-28T08:47:44.406Z,24.20
2022-09-28T08:50:04.322Z,24.40
2022-09-28T08:52:39.322Z,24.30
2022-09-28T08:55:08.854Z,24.50
2022-09-28T08:57:22.287Z,24.40
2022-09-28T08:59:34.949Z,24.40
2022-09-28T09:01:49.253Z,24.40
2022-09-28T09:03:55.366Z,24.60
2022-09-28T09:06:24.308Z,24.60
2022-09-28T09:08:48.093Z,24.80
2022-09-28T09:10:57.963Z,24.70
2022-09-28T09:13:48.878Z,24.80
2022-09-28T09:16:03.682Z,24.90
2022-09-28T09:18:38.250Z,25.10
2022-09-28T09:21:09.220Z,25.10
2022-09-28T09:23:21.019Z,25.20
2022-09-28T09:25:29.617Z,25.10
2022-09-28T09:27:52.259Z,24.90
2022-09-28T09:30:06.351Z,24.90
2022-09-28T09:32:41.341Z,24.90
2022-09-28T09:35:43.142Z,25.10
2022-09-28T09:38:20.721Z,25.10
2022-09-28T09:40:54.794Z,25.20
2022-09-28T09:43:58.896Z,25.10
2022-09-28T09:46:31.792Z,25.10
2022-09-28T09:49:01.935Z,25.20
2022-09-28T09:51:16.515Z,25.30
2022-09-28T09:53:25.481Z,25.30
2022-09-28T09:55:35.756Z,25.30
2022-09-28T09:58:06.508Z,25.40
2022-09-28T10:00:18.040Z,25.40
2022-09-28T10:02:37.210Z,25.40
2022-09-28T10:04:55.145Z,25.40
2022-09-28T10:07:14.556Z,25.30
2022-09-28T10:09:26.058Z,25.40
2022-09-28T10:11:37.319Z,25.40
2022-09-28T10:13:44.853Z,25.40
2022-09-28T10:16:09.630Z,25.50
2022-09-28T10:18:24.577Z,25.50
2022-09-28T10:20:47.480Z,25.60
2022-09-28T10:23:19.192Z,25.70
2022-09-28T10:25:24.046Z,25.60
2022-09-28T10:27:33.247Z,25.80
2022-09-28T10:29:46.119Z,25.90
2022-09-28T10:31:51.837Z,26.00
2022-09-28T10:34:08.993Z,26.00
2022-09-28T10:36:14.067Z,26.00
2022-09-28T10:38:20.615Z,26.10
2022-09-28T10:40:46.985Z,26.10
2022-09-28T10:43:02.984Z,26.20
2022-09-28T10:45:22.723Z,26.20
2022-09-28T10:47:30.911Z,26.10
2022-09-28T10:49:48.564Z,26.20
2022-09-28T10:51:57.421Z,26.10
2022-09-28T10:54:17.118Z,26.10
2022-09-28T10:56:29.937Z,26.10
2022-09-28T10:58:42.213Z,26.10
2022-09-28T11:00:52.904Z,26.10
2022-09-28T11:03:02.326Z,26.10
2022-09-28T11:05:09.384Z,26.00
2022-09-28T11:07:21.645Z,26.10
2022-09-28T11:09:31.255Z,26.00
2022-09-28T11:11:43.298Z,26.10
2022-09-28T11:13:50.675Z,26.10
2022-09-28T11:16:02.689Z,26.20
2022-09-28T11:18:26.483Z,26.20
2022-09-28T11:20:36.172Z,26.20
2022-09-28T11:22:44.848Z,26.20
2022-09-28T11:24:52.430Z,26.10
2022-09-28T11:27:00.407Z,26.00
2022-09-28T11:29:18.575Z,26.00
2022-09-28T11:31:31.549Z,26.20
2022-09-28T11:33:46.397Z,26.20
2022-09-28T11:36:31.284Z,26.20
2022-09-28T11:38:42.548Z,26.30
2022-09-28T11:41:35.602Z,26.20
2022-09-28T11:43:57.210Z,26.20
2022-09-28T11:46:10.598Z,26.00
2022-09-28T11:48:17.418Z,25.90
2022-09-28T11:50:29.990Z,26.10
2022-09-28T11:52:43.359Z,26.30
2022-09-28T11:54:55.338Z,26.30
2022-09-28T11:57:03.756Z,26.30
2022-09-28T11:59:16.061Z,26.40
2022-09-28T12:01:31.622Z,26.40
2022-09-28T12:04:04.181Z,26.20
2022-09-28T12:06:11.325Z,26.20
2022-09-28T12:08:22.635Z,26.20
2022-09-28T12:10:49.121Z,26.20
2022-09-28T12:13:03.076Z,26.40
2022-09-28T12:15:16.608Z,26.50
2022-09-28T12:17:26.837Z,26.30
2022-09-28T12:19:36.338Z,26.20
2022-09-28T12:21:46.967Z,26.30
2022-09-28T12:23:55.091Z,26.30
2022-09-28T12:26:03.402Z,26.40
2022-09-28T12:28:14.206Z,26.50
2022-09-28T12:30:21.186Z,26.50
2022-09-28T12:32:33.387Z,26.50
2022-09-28T12:34:38.166Z,26.40
2022-09-28T12:36:57.705Z,26.40
2022-09-28T12:39:23.955Z,26.30
2022-09-28T12:41:37.644Z,26.30
2022-09-28T12:43:57.237Z,26.20
2022-09-28T12:46:12.457Z,26.30
2022-09-28T12:48:37.279Z,26.40
2022-09-28T12:50:56.750Z,26.40
2022-09-28T12:53:21.277Z,26.40
2022-09-28T12:55:52.429Z,26.40
2022-09-28T12:58:05.599Z,26.50
2022-09-28T13:00:15.671Z,26.50
2022-09-28T13:02:41.212Z,26.40
2022-09-28T13:05:09.284Z,26.30
2022-09-28T13:07:24.055Z,26.40
2022-09-28T13:09:31.721Z,26.40
2022-09-28T13:11:45.746Z,26.40
2022-09-28T13:13:59.880Z,26.40
2022-09-28T13:16:10.487Z,26.40
2022-09-28T13:18:27.572Z,26.30
2022-09-28T13:20:46.440Z,26.40
2022-09-28T13:22:57.294Z,26.40
2022-09-28T13:25:10.302Z,26.20
2022-09-28T13:27:21.879Z,26.20
2022-09-28T13:29:27.349Z,26.30
2022-09-28T13:31:35.986Z,26.30
2022-09-28T13:33:45.945Z,26.30
2022-09-28T13:35:50.732Z,26.30
2022-09-28T13:38:47.315Z,26.20
2022-09-28T13:41:13.045Z,26.20
2022-09-28T13:43:30.251Z,26.20
2022-09-28T13:45:56.805Z,26.10
2022-09-28T13:48:15.766Z,26.10
2022-09-28T13:50:29.836Z,26.00
2022-09-28T13:52:45.392Z,26.00
2022-09-28T13:54:58.548Z,26.00
2022-09-28T13:57:18.433Z,25.90
2022-09-28T13:59:28.447Z,25.90
2022-09-28T14:01:39.109Z,25.90
2022-09-28T14:03:54.505Z,25.90
2022-09-28T14:06:11.673Z,25.80
2022-09-28T14:08:40.549Z,25.60
2022-09-28T14:10:52.191Z,25.60
2022-09-28T14:12:56.781Z,25.50
2022-09-28T14:15:42.051Z,25.60
2022-09-28T14:18:01.266Z,25.60
2022-09-28T14:20:12.106Z,25.60
2022-09-28T14:22:24.257Z,25.50
2022-09-28T14:24:40.394Z,25.40
2022-09-28T14:27:26.269Z,25.30
2022-09-28T14:29:32.440Z,25.20
2022-09-28T14:31:44.879Z,25.20
2022-09-28T14:33:59.401Z,25.10
2022-09-28T14:36:08.553Z,25.10
2022-09-28T14:38:35.563Z,25.10
2022-09-28T14:41:13.185Z,25.10
2022-09-28T14:43:28.096Z,25.00
2022-09-28T14:45:39.255Z,25.00
2022-09-28T14:47:46.531Z,25.00
2022-09-28T14:50:02.126Z,25.00
2022-09-28T14:52:12.011Z,25.00
2022-09-28T14:54:21.463Z,25.00
2022-09-28T14:56:32.475Z,25.00
2022-09-28T14:58:38.991Z,25.00
2022-09-28T15:00:45.679Z,24.90
2022-09-28T15:02:55.327Z,24.90
2022-09-28T15:05:10.949Z,24.90
2022-09-28T15:07:21.768Z,24.80
2022-09-28T15:09:29.079Z,24.80
2022-09-28T15:11:34.170Z,24.70
2022-09-28T15:13:40.888Z,24.60
2022-09-28T15:15:50.766Z,24.50
2022-09-28T15:18:07.435Z,24.50
2022-09-28T15:20:24.716Z,24.50
2022-09-28T15:22:30.403Z,24.50
2022-09-28T15:24:35.936Z,24.50
2022-09-28T15:26:40.645Z,24.40
2022-09-28T15:28:46.629Z,24.30
2022-09-28T15:30:52.288Z,24.20
2022-09-28T15:33:19.886Z,24.30
2022-09-28T15:35:26.491Z,24.20
2022-09-28T15:37:40.671Z,24.20
2022-09-28T15:39:48.495Z,24.20
2022-09-28T15:41:53.280Z,24.20
2022-09-28T15:44:20.042Z,24.10
2022-09-28T15:46:29.463Z,24.10
2022-09-28T15:48:43.296Z,24.00
2022-09-28T15:51:12.546Z,24.00
2022-09-28T15:53:20.060Z,24.00
2022-09-28T15:55:28.470Z,24.10
2022-09-28T15:57:39.014Z,24.10
2022-09-28T15:59:47.142Z,24.00
2022-09-28T16:02:08.070Z,24.00
2022-09-28T16:04:38.899Z,24.00
2022-09-28T16:06:44.230Z,23.90
2022-09-28T16:08:49.842Z,23.90
2022-09-28T16:10:58.613Z,23.80
2022-09-28T16:13:16.314Z,23.70
2022-09-28T16:15:23.129Z,23.60
2022-09-28T16:17:32.951Z,23.60
2022-09-28T16:19:39.409Z,23.60
2022-09-28T16:21:48.852Z,23.70
2022-09-28T16:23:57.681Z,23.80
2022-09-28T16:26:04.312Z,23.80
2022-09-28T16:28:13.642Z,23.80
2022-09-28T16:30:24.399Z,23.90
2022-09-28T16:32:41.824Z,23.90
2022-09-28T16:34:48.103Z,23.90
2022-09-28T16:36:52.602Z,23.90
2022-09-28T16:38:57.737Z,23.90
2022-09-28T16:41:04.123Z,23.90
2022-09-28T16:43:11.478Z,23.90
2022-09-28T16:45:21.693Z,23.60
2022-09-28T16:47:27.085Z,23.20
2022-09-28T16:49:35.106Z,22.90
2022-09-28T16:51:41.343Z,22.60
2022-09-28T16:53:59.926Z,22.30
2022-09-28T16:56:05.745Z,22.10
2022-09-28T16:58:10.499Z,21.90
2022-09-28T17:00:20.424Z,21.80
2022-09-28T17:04:57.383Z,21.70
2022-09-28T17:07:12.276Z,21.50
2022-09-28T17:09:16.819Z,21.50
2022-09-28T17:11:24.850Z,21.40
2022-09-28T17:13:33.513Z,21.30
2022-09-28T17:15:39.120Z,21.20
2022-09-28T17:17:43.549Z,21.20
2022-09-28T17:19:48.086Z,21.20
2022-09-28T17:21:54.166Z,21.10
2022-09-28T17:24:00.299Z,21.10
2022-09-28T17:26:06.349Z,21.00
2022-09-28T17:28:19.560Z,20.90
2022-09-28T17:30:25.801Z,20.80
2022-09-28T17:32:32.864Z,20.80
2022-09-28T17:34:37.538Z,20.70
2022-09-28T17:36:43.003Z,20.60
2022-09-28T17:38:48.953Z,20.60
2022-09-28T17:40:55.979Z,20.50
2022-09-28T17:43:01.270Z,20.50
2022-09-28T17:45:06.955Z,20.50
2022-09-28T17:47:12.219Z,20.30
2022-09-28T17:49:16.979Z,20.30
2022-09-28T17:51:22.617Z,20.20
2022-09-28T17:53:27.169Z,20.20
2022-09-28T17:55:32.582Z,20.00
2022-09-28T17:57:38.629Z,20.00
2022-09-28T17:59:43.256Z,19.90
2022-09-28T18:01:48.562Z,20.00
2022-09-28T18:03:53.086Z,20.00
2022-09-28T18:06:02.748Z,20.00
2022-09-28T18:08:06.949Z,19.90
2022-09-28T18:10:15.838Z,19.90
2022-09-28T18:12:20.184Z,19.80
2022-09-28T18:14:25.989Z,19.90
2022-09-28T18:16:30.321Z,19.90
2022-09-28T18:18:38.251Z,19.80
2022-09-28T18:20:42.962Z,19.80
2022-09-28T18:22:47.451Z,19.60
2022-09-28T18:24:57.135Z,19.60
2022-09-28T18:27:02.021Z,19.50
2022-09-28T18:29:06.685Z,19.50
2022-09-28T18:31:15.474Z,19.50
2022-09-28T18:33:22.049Z,19.50
2022-09-28T18:35:28.747Z,19.60
2022-09-28T18:37:36.595Z,19.50
2022-09-28T18:39:40.979Z,19.50
2022-09-28T18:41:45.478Z,19.40
2022-09-28T18:43:51.401Z,19.30
2022-09-28T18:45:56.565Z,19.40
2022-09-28T18:48:03.025Z,19.30
2022-09-28T18:50:11.725Z,19.40
2022-09-28T18:52:19.255Z,19.30
2022-09-28T18:54:42.041Z,19.40
2022-09-28T18:56:53.011Z,19.50
2022-09-28T18:59:12.626Z,19.50
2022-09-28T19:01:31.081Z,19.50
2022-09-28T19:03:39.666Z,19.40
2022-09-28T19:05:44.739Z,19.50
2022-09-28T19:07:49.149Z,19.40
2022-09-28T19:09:54.582Z,19.50
2022-09-28T19:11:59.258Z,19.40
2022-09-28T19:14:03.876Z,19.30
2022-09-28T19:16:10.046Z,19.30
2022-09-28T19:18:14.249Z,19.30
2022-09-28T19:20:20.247Z,19.20
2022-09-28T19:22:24.685Z,19.30
2022-09-28T19:24:29.191Z,19.30
2022-09-28T19:26:34.427Z,19.30
2022-09-28T19:28:43.197Z,19.30
2022-09-28T19:30:56.124Z,19.30
2022-09-28T19:33:00.781Z,19.30
2022-09-28T19:35:05.957Z,19.80
2022-09-28T19:37:12.379Z,20.00
2022-09-28T19:39:16.878Z,20.40
2022-09-28T19:41:43.082Z,20.60
2022-09-28T19:43:48.066Z,20.70
2022-09-28T19:45:53.413Z,20.60
2022-09-28T19:47:59.528Z,20.40
2022-09-28T19:50:07.572Z,20.30
2022-09-28T19:52:17.142Z,20.20
2022-09-28T19:54:22.353Z,20.20
2022-09-28T19:56:28.820Z,20.30
2022-09-28T19:58:35.468Z,20.60
2022-09-28T20:00:39.840Z,20.70
2022-09-28T20:02:44.258Z,20.80
2022-09-28T20:04:49.041Z,20.70
2022-09-28T20:06:53.987Z,21.10
2022-09-28T20:09:00.118Z,21.30
2022-09-28T20:11:05.626Z,21.50
2022-09-28T20:13:10.000Z,21.60
2022-09-28T20:15:14.814Z,21.60
2022-09-28T20:17:19.932Z,21.50
2022-09-28T20:19:24.407Z,21.50
2022-09-28T20:21:29.340Z,21.60
2022-09-28T20:23:34.733Z,21.80
2022-09-28T20:25:40.397Z,22.00
2022-09-28T20:27:44.781Z,22.00
2022-09-28T20:30:07.811Z,22.20
2022-09-28T20:32:12.404Z,22.10
2022-09-28T20:34:16.912Z,22.20
2022-09-28T20:36:23.550Z,22.20
2022-09-28T20:38:27.933Z,22.30
2022-09-28T20:40:32.224Z,22.30
2022-09-28T20:42:38.558Z,22.40
2022-09-28T20:44:42.782Z,22.40
2022-09-28T20:46:51.471Z,22.40
2022-09-28T20:48:57.968Z,22.00
2022-09-28T20:51:03.553Z,21.80
2022-09-28T20:53:07.913Z,21.70
2022-09-28T20:55:12.154Z,21.60
2022-09-28T20:57:20.694Z,21.40
2022-09-28T20:59:27.814Z,21.30
2022-09-28T21:01:32.489Z,21.50
2022-09-28T21:03:36.946Z,21.60
2022-09-28T21:05:41.317Z,21.60
2022-09-28T21:07:45.608Z,21.50
2022-09-28T21:09:50.641Z,21.20
2022-09-28T21:11:55.248Z,21.00
2022-09-28T21:14:01.216Z,20.80
2022-09-28T21:16:08.093Z,20.90
2022-09-28T21:18:12.811Z,21.00
2022-09-28T21:20:17.191Z,21.10
2022-09-28T21:22:21.416Z,21.00
2022-09-28T21:24:27.121Z,21.10
2022-09-28T21:26:32.558Z,21.40
2022-09-28T21:28:37.637Z,21.70
2022-09-28T21:30:42.442Z,21.80
2022-09-28T21:32:50.271Z,21.90
2022-09-28T21:34:56.068Z,21.90
2022-09-28T21:37:00.213Z,21.80
2022-09-28T21:39:09.527Z,21.70
2022-09-28T21:41:14.580Z,21.80
2022-09-28T21:43:18.733Z,21.80
2022-09-28T21:45:25.192Z,21.90
2022-09-28T21:47:29.974Z,21.90
2022-09-28T21:49:35.592Z,21.90
2022-09-28T21:51:40.046Z,21.80
2022-09-28T21:53:45.474Z,21.80
2022-09-28T21:55:52.580Z,21.80
2022-09-28T21:57:56.818Z,21.90
2022-09-28T22:00:01.039Z,21.80
2022-09-28T22:02:06.814Z,21.90
2022-09-28T22:04:12.132Z,21.80
2022-09-28T22:06:19.937Z,21.90
2022-09-28T22:08:26.686Z,21.90
2022-09-28T22:10:30.950Z,22.00
2022-09-28T22:12:35.571Z,21.80
2022-09-28T22:14:39.881Z,21.70
2022-09-28T22:16:44.124Z,21.70
2022-09-28T22:18:49.027Z,21.70
2022-09-28T22:21:00.747Z,21.60
2022-09-28T22:23:06.715Z,21.70
2022-09-28T22:25:11.378Z,21.70
2022-09-28T22:27:16.775Z,21.70
2022-09-28T22:29:21.770Z,21.70
2022-09-28T22:31:28.140Z,21.50
2022-09-28T22:33:32.541Z,21.40
2022-09-28T22:35:36.936Z,21.40
2022-09-28T22:37:41.272Z,21.50
2022-09-28T22:39:47.621Z,21.60
2022-09-28T22:41:52.665Z,21.70
2022-09-28T22:43:57.083Z,21.70
2022-09-28T22:46:08.164Z,21.80
2022-09-28T22:48:12.999Z,21.70
2022-09-28T22:50:17.402Z,21.60
2022-09-28T22:52:22.908Z,21.70
2022-09-28T22:54:27.327Z,21.90
2022-09-28T22:56:33.336Z,22.00
2022-09-28T22:58:39.247Z,22.00
2022-09-28T23:00:44.739Z,22.00
2022-09-28T23:02:49.293Z,21.70
2022-09-28T23:04:53.592Z,21.70
2022-09-28T23:06:58.279Z,21.60
2022-09-28T23:09:02.962Z,21.60
2022-09-28T23:11:08.112Z,21.60
2022-09-28T23:13:13.811Z,21.40
2022-09-28T23:15:18.161Z,21.60
2022-09-28T23:17:22.680Z,21.60
2022-09-28T23:19:26.904Z,21.60
2022-09-28T23:21:31.941Z,21.80
2022-09-28T23:23:36.352Z,21.90
2022-09-28T23:25:40.655Z,22.00
2022-09-28T23:27:47.433Z,21.80
2022-09-28T23:29:54.438Z,21.80
2022-09-28T23:31:58.750Z,21.60
2022-09-28T23:34:06.528Z,21.50
2022-09-28T23:36:11.710Z,21.20
2022-09-28T23:38:18.079Z,21.00
2022-09-28T23:40:22.554Z,20.90
2022-09-28T23:42:26.865Z,20.80
2022-09-28T23:44:31.388Z,20.80
2022-09-28T23:46:38.989Z,20.80
2022-09-28T23:48:43.646Z,20.80
2022-09-28T23:50:48.219Z,20.70
2022-09-28T23:52:52.827Z,20.80
2022-09-28T23:54:57.120Z,21.10
2022-09-28T23:57:01.335Z,21.10
2022-09-28T23:59:09.769Z,21.10
